CheckWX is a tool to help pilots better visualize weather data.  It is not intended as a substitute for an official pre-flight weather briefing.

12:00:50 UTC

VTBS TAF
Suvarnabhumi Airport
Bangkok, Thailand
TAF VTBS 031100Z 0312/0418 20010KT 9999 FEW020 TEMPO 0322/0401 16012KT 6000 -TSRA FEW018CB SCT030

Apr-3@
12:00 UTC

Apr-3 @ 12:00 UTC

Apr-4@
18:00 UTC

Apr-4 @ 18:00 UTC

TAF VTBS 031100Z 0312/0418 20010KT 9999 FEW020
Wind
  • 200° at 10 KTS
Cloud Levels
  • Few at 2,000' AGL

Apr-3@
22:00 UTC

Apr-3 @ 22:00 UTC

Apr-4@
01:00 UTC

Apr-4 @ 01:00 UTC

TEMPO 0322/0401 16012KT 6000 -TSRA FEW018CB SCT030

Expired

Wind
  • 160° at 12 KTS
Conditions
Light Thunderstorm, Rain
Cloud Levels
  • Few at 1,800' AGL
  • Scattered at 3,000' AGL